sensor_id;sensor_type;location;lat;lon;timestamp;temperature;humidity
19868;DHT22;10096;51.112;6.776;2023-07-20T00:01:51;19.30;99.90
19868;DHT22;10096;51.112;6.776;2023-07-20T00:04:18;19.10;99.90
19868;DHT22;10096;51.112;6.776;2023-07-20T00:06:45;19.10;99.90
19868;DHT22;10096;51.112;6.776;2023-07-20T00:09:12;19.20;99.90
19868;DHT22;10096;51.112;6.776;2023-07-20T00:11:48;19.20;99.90
19868;DHT22;10096;51.112;6.776;2023-07-20T00:14:16;19.10;99.90
19868;DHT22;10096;51.112;6.776;2023-07-20T00:16:43;19.00;99.90
19868;DHT22;10096;51.112;6.776;2023-07-20T00:19:10;18.80;99.90
19868;DHT22;10096;51.112;6.776;2023-07-20T00:21:37;18.70;99.90
19868;DHT22;10096;51.112;6.776;2023-07-20T00:24:06;18.50;99.90
19868;DHT22;10096;51.112;6.776;2023-07-20T00:26:32;18.40;99.90
19868;DHT22;10096;51.112;6.776;2023-07-20T00:29:01;18.30;99.90
19868;DHT22;10096;51.112;6.776;2023-07-20T00:31:29;18.20;99.90
19868;DHT22;10096;51.112;6.776;2023-07-20T00:33:56;18.10;99.90
19868;DHT22;10096;51.112;6.776;2023-07-20T00:36:23;18.20;99.90
19868;DHT22;10096;51.112;6.776;2023-07-20T00:38:50;18.00;1.00
19868;DHT22;10096;51.112;6.776;2023-07-20T00:41:17;18.30;1.00
19868;DHT22;10096;51.112;6.776;2023-07-20T00:43:44;18.00;1.00
19868;DHT22;10096;51.112;6.776;2023-07-20T00:46:12;17.90;1.00
19868;DHT22;10096;51.112;6.776;2023-07-20T00:48:40;18.00;1.00
19868;DHT22;10096;51.112;6.776;2023-07-20T00:51:08;17.90;1.00
19868;DHT22;10096;51.112;6.776;2023-07-20T00:53:35;17.90;1.00
19868;DHT22;10096;51.112;6.776;2023-07-20T00:56:02;18.10;1.00
19868;DHT22;10096;51.112;6.776;2023-07-20T00:58:30;18.00;1.00
19868;DHT22;10096;51.112;6.776;2023-07-20T01:00:58;18.10;1.00
19868;DHT22;10096;51.112;6.776;2023-07-20T01:03:26;18.20;1.00
19868;DHT22;10096;51.112;6.776;2023-07-20T01:05:57;18.50;1.00
19868;DHT22;10096;51.112;6.776;2023-07-20T01:08:33;18.10;1.00
19868;DHT22;10096;51.112;6.776;2023-07-20T01:11:10;18.20;1.00
19868;DHT22;10096;51.112;6.776;2023-07-20T01:13:39;18.50;1.00
19868;DHT22;10096;51.112;6.776;2023-07-20T01:16:06;18.30;1.00
19868;DHT22;10096;51.112;6.776;2023-07-20T01:18:35;18.60;1.00
19868;DHT22;10096;51.112;6.776;2023-07-20T01:21:09;18.30;1.00
19868;DHT22;10096;51.112;6.776;2023-07-20T01:24:11;18.30;1.00
19868;DHT22;10096;51.112;6.776;2023-07-20T01:27:00;18.30;1.00
19868;DHT22;10096;51.112;6.776;2023-07-20T01:29:43;18.40;1.00
19868;DHT22;10096;51.112;6.776;2023-07-20T01:32:23;18.30;1.00
19868;DHT22;10096;51.112;6.776;2023-07-20T01:34:52;18.30;1.00
19868;DHT22;10096;51.112;6.776;2023-07-20T01:37:21;18.00;1.00
19868;DHT22;10096;51.112;6.776;2023-07-20T01:39:52;17.90;1.00
19868;DHT22;10096;51.112;6.776;2023-07-20T01:42:22;18.10;1.00
19868;DHT22;10096;51.112;6.776;2023-07-20T01:44:51;18.10;1.00
19868;DHT22;10096;51.112;6.776;2023-07-20T01:47:19;18.40;1.00
19868;DHT22;10096;51.112;6.776;2023-07-20T01:49:46;18.30;1.00
19868;DHT22;10096;51.112;6.776;2023-07-20T01:52:13;18.20;1.00
19868;DHT22;10096;51.112;6.776;2023-07-20T01:54:40;18.00;1.00
19868;DHT22;10096;51.112;6.776;2023-07-20T01:57:07;18.00;1.00
19868;DHT22;10096;51.112;6.776;2023-07-20T01:59:35;17.80;1.00
19868;DHT22;10096;51.112;6.776;2023-07-20T02:02:02;17.80;1.00
19868;DHT22;10096;51.112;6.776;2023-07-20T02:04:30;17.60;1.00
19868;DHT22;10096;51.112;6.776;2023-07-20T02:06:57;17.80;1.00
19868;DHT22;10096;51.112;6.776;2023-07-20T02:09:24;17.40;1.00
19868;DHT22;10096;51.112;6.776;2023-07-20T02:11:51;17.40;1.00
19868;DHT22;10096;51.112;6.776;2023-07-20T02:14:18;17.20;1.00
19868;DHT22;10096;51.112;6.776;2023-07-20T02:16:48;17.60;1.00
19868;DHT22;10096;51.112;6.776;2023-07-20T02:19:17;17.10;1.00
19868;DHT22;10096;51.112;6.776;2023-07-20T02:21:46;17.30;1.00
19868;DHT22;10096;51.112;6.776;2023-07-20T02:24:13;17.10;1.00
19868;DHT22;10096;51.112;6.776;2023-07-20T02:26:40;17.20;1.00
19868;DHT22;10096;51.112;6.776;2023-07-20T02:29:07;17.10;1.00
19868;DHT22;10096;51.112;6.776;2023-07-20T02:31:37;16.80;1.00
19868;DHT22;10096;51.112;6.776;2023-07-20T02:34:04;16.90;4.80
19868;DHT22;10096;51.112;6.776;2023-07-20T02:36:31;16.90;1.00
19868;DHT22;10096;51.112;6.776;2023-07-20T02:39:01;17.00;1.00
19868;DHT22;10096;51.112;6.776;2023-07-20T02:41:30;17.00;1.00
19868;DHT22;10096;51.112;6.776;2023-07-20T02:43:57;17.10;1.00
19868;DHT22;10096;51.112;6.776;2023-07-20T02:46:24;17.40;1.00
19868;DHT22;10096;51.112;6.776;2023-07-20T02:48:51;17.40;1.00
19868;DHT22;10096;51.112;6.776;2023-07-20T02:51:18;17.20;1.00
19868;DHT22;10096;51.112;6.776;2023-07-20T02:53:45;17.20;1.00
19868;DHT22;10096;51.112;6.776;2023-07-20T02:56:13;17.30;1.00
19868;DHT22;10096;51.112;6.776;2023-07-20T02:58:41;17.20;1.00
19868;DHT22;10096;51.112;6.776;2023-07-20T03:01:11;17.30;1.00
19868;DHT22;10096;51.112;6.776;2023-07-20T03:03:39;17.30;1.00
19868;DHT22;10096;51.112;6.776;2023-07-20T03:06:06;17.10;1.00
19868;DHT22;10096;51.112;6.776;2023-07-20T03:08:34;17.00;1.00
19868;DHT22;10096;51.112;6.776;2023-07-20T03:11:01;16.90;1.00
19868;DHT22;10096;51.112;6.776;2023-07-20T03:13:29;16.90;1.00
19868;DHT22;10096;51.112;6.776;2023-07-20T03:15:57;16.90;1.00
19868;DHT22;10096;51.112;6.776;2023-07-20T03:18:24;17.20;1.00
19868;DHT22;10096;51.112;6.776;2023-07-20T03:20:51;17.10;1.00
19868;DHT22;10096;51.112;6.776;2023-07-20T03:23:18;17.00;8.80
19868;DHT22;10096;51.112;6.776;2023-07-20T03:25:45;16.90;1.90
19868;DHT22;10096;51.112;6.776;2023-07-20T03:28:12;17.10;20.60
19868;DHT22;10096;51.112;6.776;2023-07-20T03:30:41;17.10;11.40
19868;DHT22;10096;51.112;6.776;2023-07-20T03:33:08;17.10;25.50
19868;DHT22;10096;51.112;6.776;2023-07-20T03:35:35;17.00;4.90
19868;DHT22;10096;51.112;6.776;2023-07-20T03:38:02;16.90;5.90
19868;DHT22;10096;51.112;6.776;2023-07-20T03:40:30;16.90;65.40
19868;DHT22;10096;51.112;6.776;2023-07-20T03:42:57;17.00;58.20
19868;DHT22;10096;51.112;6.776;2023-07-20T03:45:23;17.00;59.00
19868;DHT22;10096;51.112;6.776;2023-07-20T03:47:52;17.20;27.30
19868;DHT22;10096;51.112;6.776;2023-07-20T03:50:19;17.20;1.00
19868;DHT22;10096;51.112;6.776;2023-07-20T03:52:46;17.20;1.00
19868;DHT22;10096;51.112;6.776;2023-07-20T03:55:13;17.40;31.90
19868;DHT22;10096;51.112;6.776;2023-07-20T03:57:40;17.10;13.40
19868;DHT22;10096;51.112;6.776;2023-07-20T04:00:09;17.40;29.40
19868;DHT22;10096;51.112;6.776;2023-07-20T04:02:37;17.30;1.00
19868;DHT22;10096;51.112;6.776;2023-07-20T04:05:06;17.40;1.00
19868;DHT22;10096;51.112;6.776;2023-07-20T04:07:33;17.50;1.00
19868;DHT22;10096;51.112;6.776;2023-07-20T04:10:01;17.60;1.00
19868;DHT22;10096;51.112;6.776;2023-07-20T04:12:28;17.90;1.00
19868;DHT22;10096;51.112;6.776;2023-07-20T04:14:55;18.00;1.00
19868;DHT22;10096;51.112;6.776;2023-07-20T04:17:22;17.90;1.00
19868;DHT22;10096;51.112;6.776;2023-07-20T04:19:49;17.90;1.00
19868;DHT22;10096;51.112;6.776;2023-07-20T04:22:18;17.90;1.00
19868;DHT22;10096;51.112;6.776;2023-07-20T04:24:45;18.30;1.00
19868;DHT22;10096;51.112;6.776;2023-07-20T04:27:12;18.00;1.00
19868;DHT22;10096;51.112;6.776;2023-07-20T04:29:39;18.40;1.00
19868;DHT22;10096;51.112;6.776;2023-07-20T04:32:07;18.20;1.00
19868;DHT22;10096;51.112;6.776;2023-07-20T04:34:34;18.20;1.00
19868;DHT22;10096;51.112;6.776;2023-07-20T04:37:03;18.20;1.00
19868;DHT22;10096;51.112;6.776;2023-07-20T04:39:31;18.30;1.00
19868;DHT22;10096;51.112;6.776;2023-07-20T04:41:58;18.30;1.00
19868;DHT22;10096;51.112;6.776;2023-07-20T04:44:25;18.30;1.00
19868;DHT22;10096;51.112;6.776;2023-07-20T04:46:52;18.40;1.00
19868;DHT22;10096;51.112;6.776;2023-07-20T04:49:22;18.50;1.00
19868;DHT22;10096;51.112;6.776;2023-07-20T04:51:49;18.50;1.00
19868;DHT22;10096;51.112;6.776;2023-07-20T04:54:16;18.50;1.00
19868;DHT22;10096;51.112;6.776;2023-07-20T04:56:46;18.50;1.00
19868;DHT22;10096;51.112;6.776;2023-07-20T04:59:13;18.80;1.00
19868;DHT22;10096;51.112;6.776;2023-07-20T05:01:40;19.00;1.00
19868;DHT22;10096;51.112;6.776;2023-07-20T05:04:07;18.70;1.00
19868;DHT22;10096;51.112;6.776;2023-07-20T05:06:34;19.00;1.00
19868;DHT22;10096;51.112;6.776;2023-07-20T05:09:01;18.80;1.00
19868;DHT22;10096;51.112;6.776;2023-07-20T05:11:28;18.80;1.00
19868;DHT22;10096;51.112;6.776;2023-07-20T05:13:56;19.00;1.00
19868;DHT22;10096;51.112;6.776;2023-07-20T05:16:23;19.10;1.00
19868;DHT22;10096;51.112;6.776;2023-07-20T05:18:50;18.90;1.00
19868;DHT22;10096;51.112;6.776;2023-07-20T05:21:17;19.00;1.00
19868;DHT22;10096;51.112;6.776;2023-07-20T05:23:44;19.10;1.00
19868;DHT22;10096;51.112;6.776;2023-07-20T05:26:11;19.00;1.00
19868;DHT22;10096;51.112;6.776;2023-07-20T05:28:38;19.20;1.00
19868;DHT22;10096;51.112;6.776;2023-07-20T05:31:06;19.40;1.00
19868;DHT22;10096;51.112;6.776;2023-07-20T05:33:34;19.60;1.00
19868;DHT22;10096;51.112;6.776;2023-07-20T05:36:01;19.80;1.00
19868;DHT22;10096;51.112;6.776;2023-07-20T05:38:28;20.20;99.90
19868;DHT22;10096;51.112;6.776;2023-07-20T05:40:59;20.30;99.90
19868;DHT22;10096;51.112;6.776;2023-07-20T05:43:27;20.10;99.90
19868;DHT22;10096;51.112;6.776;2023-07-20T05:45:54;20.40;99.90
19868;DHT22;10096;51.112;6.776;2023-07-20T05:48:23;20.50;99.90
19868;DHT22;10096;51.112;6.776;2023-07-20T05:50:50;21.20;99.90
19868;DHT22;10096;51.112;6.776;2023-07-20T05:53:17;22.20;99.90
19868;DHT22;10096;51.112;6.776;2023-07-20T05:55:44;22.60;99.90
19868;DHT22;10096;51.112;6.776;2023-07-20T05:58:12;22.40;99.90
19868;DHT22;10096;51.112;6.776;2023-07-20T06:00:39;22.00;99.90
19868;DHT22;10096;51.112;6.776;2023-07-20T06:03:05;21.60;99.90
19868;DHT22;10096;51.112;6.776;2023-07-20T06:05:34;21.20;99.90
19868;DHT22;10096;51.112;6.776;2023-07-20T06:08:01;20.80;99.90
19868;DHT22;10096;51.112;6.776;2023-07-20T06:10:28;20.90;99.90
19868;DHT22;10096;51.112;6.776;2023-07-20T06:12:55;20.90;99.90
19868;DHT22;10096;51.112;6.776;2023-07-20T06:15:26;20.80;99.90
19868;DHT22;10096;51.112;6.776;2023-07-20T06:17:54;21.00;99.90
19868;DHT22;10096;51.112;6.776;2023-07-20T06:20:21;20.80;99.90
19868;DHT22;10096;51.112;6.776;2023-07-20T06:22:50;21.40;99.90
19868;DHT22;10096;51.112;6.776;2023-07-20T06:25:17;21.80;99.90
19868;DHT22;10096;51.112;6.776;2023-07-20T06:27:46;22.60;99.90
19868;DHT22;10096;51.112;6.776;2023-07-20T06:30:14;24.20;99.90
19868;DHT22;10096;51.112;6.776;2023-07-20T06:32:41;25.00;99.90
19868;DHT22;10096;51.112;6.776;2023-07-20T06:35:08;25.00;99.90
19868;DHT22;10096;51.112;6.776;2023-07-20T06:37:35;24.30;99.90
19868;DHT22;10096;51.112;6.776;2023-07-20T06:40:05;23.50;99.90
19868;DHT22;10096;51.112;6.776;2023-07-20T06:42:34;23.00;99.90
19868;DHT22;10096;51.112;6.776;2023-07-20T06:45:03;22.70;99.90
19868;DHT22;10096;51.112;6.776;2023-07-20T06:47:30;22.40;99.90
19868;DHT22;10096;51.112;6.776;2023-07-20T06:49:57;22.70;99.90
19868;DHT22;10096;51.112;6.776;2023-07-20T06:52:24;23.60;99.90
19868;DHT22;10096;51.112;6.776;2023-07-20T06:54:53;25.20;99.90
19868;DHT22;10096;51.112;6.776;2023-07-20T06:57:22;26.40;99.90
19868;DHT22;10096;51.112;6.776;2023-07-20T06:59:49;27.30;99.90
19868;DHT22;10096;51.112;6.776;2023-07-20T07:02:16;26.60;99.90
19868;DHT22;10096;51.112;6.776;2023-07-20T07:04:43;25.70;99.90
19868;DHT22;10096;51.112;6.776;2023-07-20T07:07:13;25.30;99.90
19868;DHT22;10096;51.112;6.776;2023-07-20T07:09:40;26.20;99.90
19868;DHT22;10096;51.112;6.776;2023-07-20T07:12:08;27.20;99.90
19868;DHT22;10096;51.112;6.776;2023-07-20T07:14:38;26.40;99.90
19868;DHT22;10096;51.112;6.776;2023-07-20T07:17:05;25.30;99.90
19868;DHT22;10096;51.112;6.776;2023-07-20T07:19:32;24.60;99.90
19868;DHT22;10096;51.112;6.776;2023-07-20T07:22:00;23.80;99.90
19868;DHT22;10096;51.112;6.776;2023-07-20T07:24:27;23.00;99.90
19868;DHT22;10096;51.112;6.776;2023-07-20T07:26:59;24.50;99.90
19868;DHT22;10096;51.112;6.776;2023-07-20T07:29:26;26.40;99.90
19868;DHT22;10096;51.112;6.776;2023-07-20T07:31:56;28.20;99.90
19868;DHT22;10096;51.112;6.776;2023-07-20T07:34:23;29.70;99.90
19868;DHT22;10096;51.112;6.776;2023-07-20T07:36:51;30.30;99.90
19868;DHT22;10096;51.112;6.776;2023-07-20T07:39:19;29.20;99.90
19868;DHT22;10096;51.112;6.776;2023-07-20T07:41:46;27.70;99.90
19868;DHT22;10096;51.112;6.776;2023-07-20T07:44:13;27.40;99.90
19868;DHT22;10096;51.112;6.776;2023-07-20T07:46:40;28.60;99.90
19868;DHT22;10096;51.112;6.776;2023-07-20T07:49:08;29.80;99.90
19868;DHT22;10096;51.112;6.776;2023-07-20T07:51:35;30.70;99.90
19868;DHT22;10096;51.112;6.776;2023-07-20T07:54:03;30.60;99.90
19868;DHT22;10096;51.112;6.776;2023-07-20T07:56:31;28.70;99.90
19868;DHT22;10096;51.112;6.776;2023-07-20T07:58:58;27.80;99.90
19868;DHT22;10096;51.112;6.776;2023-07-20T08:01:25;26.70;99.90
19868;DHT22;10096;51.112;6.776;2023-07-20T08:03:52;25.70;99.90
19868;DHT22;10096;51.112;6.776;2023-07-20T08:06:21;26.10;99.90
19868;DHT22;10096;51.112;6.776;2023-07-20T08:08:49;27.10;99.90
19868;DHT22;10096;51.112;6.776;2023-07-20T08:11:16;28.40;99.90
19868;DHT22;10096;51.112;6.776;2023-07-20T08:13:44;29.60;99.90
19868;DHT22;10096;51.112;6.776;2023-07-20T08:16:11;29.90;99.90
19868;DHT22;10096;51.112;6.776;2023-07-20T08:18:39;30.60;99.90
19868;DHT22;10096;51.112;6.776;2023-07-20T08:21:06;30.00;99.90
19868;DHT22;10096;51.112;6.776;2023-07-20T08:23:35;29.20;99.90
19868;DHT22;10096;51.112;6.776;2023-07-20T08:26:02;28.90;99.90
19868;DHT22;10096;51.112;6.776;2023-07-20T08:28:33;29.30;99.90
19868;DHT22;10096;51.112;6.776;2023-07-20T08:31:00;28.30;99.90
19868;DHT22;10096;51.112;6.776;2023-07-20T08:33:28;26.80;99.90
19868;DHT22;10096;51.112;6.776;2023-07-20T08:36:00;25.60;99.90
19868;DHT22;10096;51.112;6.776;2023-07-20T08:38:29;25.50;99.90
19868;DHT22;10096;51.112;6.776;2023-07-20T08:40:57;27.30;99.90
19868;DHT22;10096;51.112;6.776;2023-07-20T08:43:25;28.70;99.90
19868;DHT22;10096;51.112;6.776;2023-07-20T08:45:54;30.00;99.90
19868;DHT22;10096;51.112;6.776;2023-07-20T08:48:24;29.80;99.90
19868;DHT22;10096;51.112;6.776;2023-07-20T08:50:52;30.20;99.90
19868;DHT22;10096;51.112;6.776;2023-07-20T08:53:20;30.30;99.90
19868;DHT22;10096;51.112;6.776;2023-07-20T08:55:51;30.70;99.90
19868;DHT22;10096;51.112;6.776;2023-07-20T08:58:20;31.40;99.90
19868;DHT22;10096;51.112;6.776;2023-07-20T09:00:47;31.40;99.90
19868;DHT22;10096;51.112;6.776;2023-07-20T09:03:18;30.50;99.90
19868;DHT22;10096;51.112;6.776;2023-07-20T09:05:46;29.80;99.90
19868;DHT22;10096;51.112;6.776;2023-07-20T09:08:13;29.70;99.90
19868;DHT22;10096;51.112;6.776;2023-07-20T09:10:40;30.00;99.90
19868;DHT22;10096;51.112;6.776;2023-07-20T09:13:07;30.30;99.90
19868;DHT22;10096;51.112;6.776;2023-07-20T09:15:35;29.80;99.90
19868;DHT22;10096;51.112;6.776;2023-07-20T09:18:02;28.80;99.90
19868;DHT22;10096;51.112;6.776;2023-07-20T09:20:36;28.00;99.90
19868;DHT22;10096;51.112;6.776;2023-07-20T09:23:05;27.30;99.90
19868;DHT22;10096;51.112;6.776;2023-07-20T09:25:36;27.20;99.90
19868;DHT22;10096;51.112;6.776;2023-07-20T09:28:04;26.40;99.90
19868;DHT22;10096;51.112;6.776;2023-07-20T09:30:31;26.20;99.90
19868;DHT22;10096;51.112;6.776;2023-07-20T09:33:00;26.20;99.90
19868;DHT22;10096;51.112;6.776;2023-07-20T09:35:27;25.80;99.90
19868;DHT22;10096;51.112;6.776;2023-07-20T09:37:58;26.00;99.90
19868;DHT22;10096;51.112;6.776;2023-07-20T09:40:27;26.00;99.90
19868;DHT22;10096;51.112;6.776;2023-07-20T09:42:59;26.60;99.90
19868;DHT22;10096;51.112;6.776;2023-07-20T09:45:29;26.50;99.90
19868;DHT22;10096;51.112;6.776;2023-07-20T09:48:05;26.30;99.90
19868;DHT22;10096;51.112;6.776;2023-07-20T09:50:33;26.00;99.90
19868;DHT22;10096;51.112;6.776;2023-07-20T09:53:05;26.10;99.90
19868;DHT22;10096;51.112;6.776;2023-07-20T09:55:33;26.70;99.90
19868;DHT22;10096;51.112;6.776;2023-07-20T09:58:01;27.30;99.90
19868;DHT22;10096;51.112;6.776;2023-07-20T10:00:29;27.10;99.90
19868;DHT22;10096;51.112;6.776;2023-07-20T10:02:57;26.80;99.90
19868;DHT22;10096;51.112;6.776;2023-07-20T10:05:28;26.50;99.90
19868;DHT22;10096;51.112;6.776;2023-07-20T10:08:01;26.30;99.90
19868;DHT22;10096;51.112;6.776;2023-07-20T10:10:33;26.90;99.90
19868;DHT22;10096;51.112;6.776;2023-07-20T10:13:01;27.10;99.90
19868;DHT22;10096;51.112;6.776;2023-07-20T10:15:33;27.50;99.90
19868;DHT22;10096;51.112;6.776;2023-07-20T10:18:06;27.00;99.90
19868;DHT22;10096;51.112;6.776;2023-07-20T10:20:39;27.10;99.90
19868;DHT22;10096;51.112;6.776;2023-07-20T10:23:07;27.40;99.90
19868;DHT22;10096;51.112;6.776;2023-07-20T10:25:34;27.30;99.90
19868;DHT22;10096;51.112;6.776;2023-07-20T10:28:04;27.20;99.90
19868;DHT22;10096;51.112;6.776;2023-07-20T10:30:32;27.00;99.90
19868;DHT22;10096;51.112;6.776;2023-07-20T10:33:00;27.40;99.90
19868;DHT22;10096;51.112;6.776;2023-07-20T10:35:30;27.60;99.90
19868;DHT22;10096;51.112;6.776;2023-07-20T10:38:02;27.90;99.90
19868;DHT22;10096;51.112;6.776;2023-07-20T10:40:33;27.30;99.90
19868;DHT22;10096;51.112;6.776;2023-07-20T10:43:03;26.60;99.90
19868;DHT22;10096;51.112;6.776;2023-07-20T10:45:34;26.70;99.90
19868;DHT22;10096;51.112;6.776;2023-07-20T10:48:04;26.60;99.90
19868;DHT22;10096;51.112;6.776;2023-07-20T10:50:32;26.70;99.90
19868;DHT22;10096;51.112;6.776;2023-07-20T10:53:12;26.90;99.90
19868;DHT22;10096;51.112;6.776;2023-07-20T10:55:41;26.70;99.90
19868;DHT22;10096;51.112;6.776;2023-07-20T10:58:10;26.60;99.90
19868;DHT22;10096;51.112;6.776;2023-07-20T11:00:58;27.00;99.90
19868;DHT22;10096;51.112;6.776;2023-07-20T11:03:27;26.90;99.90
19868;DHT22;10096;51.112;6.776;2023-07-20T11:05:57;26.70;99.90
19868;DHT22;10096;51.112;6.776;2023-07-20T11:08:40;27.00;99.90
19868;DHT22;10096;51.112;6.776;2023-07-20T11:11:24;26.90;99.90
19868;DHT22;10096;51.112;6.776;2023-07-20T11:13:55;26.40;99.90
19868;DHT22;10096;51.112;6.776;2023-07-20T11:16:42;26.30;99.90
19868;DHT22;10096;51.112;6.776;2023-07-20T11:19:16;26.40;99.90
19868;DHT22;10096;51.112;6.776;2023-07-20T11:21:45;26.60;99.90
19868;DHT22;10096;51.112;6.776;2023-07-20T11:24:14;27.00;99.90
19868;DHT22;10096;51.112;6.776;2023-07-20T11:26:43;27.00;99.90
19868;DHT22;10096;51.112;6.776;2023-07-20T11:29:11;27.30;99.90
19868;DHT22;10096;51.112;6.776;2023-07-20T11:31:40;27.10;99.90
19868;DHT22;10096;51.112;6.776;2023-07-20T11:34:10;26.90;99.90
19868;DHT22;10096;51.112;6.776;2023-07-20T11:36:39;26.40;99.90
19868;DHT22;10096;51.112;6.776;2023-07-20T11:39:07;26.30;99.90
19868;DHT22;10096;51.112;6.776;2023-07-20T11:41:36;26.10;99.90
19868;DHT22;10096;51.112;6.776;2023-07-20T11:44:04;26.00;99.90
19868;DHT22;10096;51.112;6.776;2023-07-20T11:46:34;26.10;99.90
19868;DHT22;10096;51.112;6.776;2023-07-20T11:49:03;26.60;99.90
19868;DHT22;10096;51.112;6.776;2023-07-20T11:51:30;27.00;99.90
19868;DHT22;10096;51.112;6.776;2023-07-20T11:53:58;27.10;99.90
19868;DHT22;10096;51.112;6.776;2023-07-20T11:56:27;27.30;99.90
19868;DHT22;10096;51.112;6.776;2023-07-20T11:58:57;27.10;99.90
19868;DHT22;10096;51.112;6.776;2023-07-20T12:01:27;27.40;99.90
19868;DHT22;10096;51.112;6.776;2023-07-20T12:03:55;27.70;99.90
19868;DHT22;10096;51.112;6.776;2023-07-20T12:06:24;27.60;99.90
19868;DHT22;10096;51.112;6.776;2023-07-20T12:08:54;27.70;99.90
19868;DHT22;10096;51.112;6.776;2023-07-20T12:11:33;27.80;99.90
19868;DHT22;10096;51.112;6.776;2023-07-20T12:14:02;27.70;99.90
19868;DHT22;10096;51.112;6.776;2023-07-20T12:16:30;27.50;99.90
19868;DHT22;10096;51.112;6.776;2023-07-20T12:19:01;27.50;99.90
19868;DHT22;10096;51.112;6.776;2023-07-20T12:21:29;27.70;99.90
19868;DHT22;10096;51.112;6.776;2023-07-20T12:23:57;27.80;99.90
19868;DHT22;10096;51.112;6.776;2023-07-20T12:26:24;27.80;99.90
19868;DHT22;10096;51.112;6.776;2023-07-20T12:28:52;27.40;99.90
19868;DHT22;10096;51.112;6.776;2023-07-20T12:31:21;27.00;99.90
19868;DHT22;10096;51.112;6.776;2023-07-20T12:33:49;26.90;99.90
19868;DHT22;10096;51.112;6.776;2023-07-20T12:36:17;27.00;99.90
19868;DHT22;10096;51.112;6.776;2023-07-20T12:38:44;26.60;99.90
19868;DHT22;10096;51.112;6.776;2023-07-20T12:41:12;26.30;99.90
19868;DHT22;10096;51.112;6.776;2023-07-20T12:43:42;26.20;99.90
19868;DHT22;10096;51.112;6.776;2023-07-20T12:46:11;26.30;99.90
19868;DHT22;10096;51.112;6.776;2023-07-20T12:48:40;26.20;99.90
19868;DHT22;10096;51.112;6.776;2023-07-20T12:51:09;26.30;99.90
19868;DHT22;10096;51.112;6.776;2023-07-20T12:53:37;26.60;99.90
19868;DHT22;10096;51.112;6.776;2023-07-20T12:56:08;26.90;99.90
19868;DHT22;10096;51.112;6.776;2023-07-20T12:58:35;27.20;99.90
19868;DHT22;10096;51.112;6.776;2023-07-20T13:01:04;27.40;99.90
19868;DHT22;10096;51.112;6.776;2023-07-20T13:03:31;27.50;99.90
19868;DHT22;10096;51.112;6.776;2023-07-20T13:06:00;27.70;99.90
19868;DHT22;10096;51.112;6.776;2023-07-20T13:08:29;27.70;99.90
19868;DHT22;10096;51.112;6.776;2023-07-20T13:10:56;27.80;99.90
19868;DHT22;10096;51.112;6.776;2023-07-20T13:13:23;27.90;99.90
19868;DHT22;10096;51.112;6.776;2023-07-20T13:15:50;27.90;99.90
19868;DHT22;10096;51.112;6.776;2023-07-20T13:18:17;27.50;99.90
19868;DHT22;10096;51.112;6.776;2023-07-20T13:20:44;27.70;99.90
19868;DHT22;10096;51.112;6.776;2023-07-20T13:23:13;27.50;99.90
19868;DHT22;10096;51.112;6.776;2023-07-20T13:25:40;27.10;99.90
19868;DHT22;10096;51.112;6.776;2023-07-20T13:28:07;27.00;99.90
19868;DHT22;10096;51.112;6.776;2023-07-20T13:30:35;26.80;99.90
19868;DHT22;10096;51.112;6.776;2023-07-20T13:33:02;26.90;99.90
19868;DHT22;10096;51.112;6.776;2023-07-20T13:35:29;27.00;99.90
19868;DHT22;10096;51.112;6.776;2023-07-20T13:37:56;27.00;99.90
19868;DHT22;10096;51.112;6.776;2023-07-20T13:40:24;26.70;99.90
19868;DHT22;10096;51.112;6.776;2023-07-20T13:42:51;26.30;99.90
19868;DHT22;10096;51.112;6.776;2023-07-20T13:45:18;26.30;99.90
19868;DHT22;10096;51.112;6.776;2023-07-20T13:47:45;26.40;99.90
19868;DHT22;10096;51.112;6.776;2023-07-20T13:50:13;26.40;99.90
19868;DHT22;10096;51.112;6.776;2023-07-20T13:52:40;26.40;99.90
19868;DHT22;10096;51.112;6.776;2023-07-20T13:55:08;26.30;99.90
19868;DHT22;10096;51.112;6.776;2023-07-20T13:57:36;26.10;99.90
19868;DHT22;10096;51.112;6.776;2023-07-20T14:00:03;26.30;99.90
19868;DHT22;10096;51.112;6.776;2023-07-20T14:02:31;26.40;99.90
19868;DHT22;10096;51.112;6.776;2023-07-20T14:04:58;26.20;99.90
19868;DHT22;10096;51.112;6.776;2023-07-20T14:07:25;26.10;99.90
19868;DHT22;10096;51.112;6.776;2023-07-20T14:09:54;25.70;99.90
19868;DHT22;10096;51.112;6.776;2023-07-20T14:12:21;25.40;99.90
19868;DHT22;10096;51.112;6.776;2023-07-20T14:14:49;25.30;99.90
19868;DHT22;10096;51.112;6.776;2023-07-20T14:17:17;25.10;99.90
19868;DHT22;10096;51.112;6.776;2023-07-20T14:19:43;24.90;99.90
19868;DHT22;10096;51.112;6.776;2023-07-20T14:22:10;25.00;99.90
19868;DHT22;10096;51.112;6.776;2023-07-20T14:24:39;25.00;99.90
19868;DHT22;10096;51.112;6.776;2023-07-20T14:27:06;25.10;99.90
19868;DHT22;10096;51.112;6.776;2023-07-20T14:29:33;25.10;99.90
19868;DHT22;10096;51.112;6.776;2023-07-20T14:32:03;25.10;99.90
19868;DHT22;10096;51.112;6.776;2023-07-20T14:34:33;25.10;99.90
19868;DHT22;10096;51.112;6.776;2023-07-20T14:37:01;25.00;99.90
19868;DHT22;10096;51.112;6.776;2023-07-20T14:39:29;25.00;99.90
19868;DHT22;10096;51.112;6.776;2023-07-20T14:41:56;25.30;99.90
19868;DHT22;10096;51.112;6.776;2023-07-20T14:44:24;25.50;99.90
19868;DHT22;10096;51.112;6.776;2023-07-20T14:46:51;25.70;99.90
19868;DHT22;10096;51.112;6.776;2023-07-20T14:49:19;26.00;99.90
19868;DHT22;10096;51.112;6.776;2023-07-20T14:51:46;25.90;99.90
19868;DHT22;10096;51.112;6.776;2023-07-20T14:54:15;26.00;99.90
19868;DHT22;10096;51.112;6.776;2023-07-20T14:56:48;25.80;99.90
19868;DHT22;10096;51.112;6.776;2023-07-20T14:59:16;25.70;99.90
19868;DHT22;10096;51.112;6.776;2023-07-20T15:01:43;25.60;99.90
19868;DHT22;10096;51.112;6.776;2023-07-20T15:04:11;25.60;99.90
19868;DHT22;10096;51.112;6.776;2023-07-20T15:06:44;25.50;99.90
19868;DHT22;10096;51.112;6.776;2023-07-20T15:09:13;25.60;99.90
19868;DHT22;10096;51.112;6.776;2023-07-20T15:11:40;25.80;99.90
19868;DHT22;10096;51.112;6.776;2023-07-20T15:14:09;25.70;99.90
19868;DHT22;10096;51.112;6.776;2023-07-20T15:16:36;25.80;99.90
19868;DHT22;10096;51.112;6.776;2023-07-20T15:19:03;26.10;99.90
19868;DHT22;10096;51.112;6.776;2023-07-20T15:21:30;26.20;99.90
19868;DHT22;10096;51.112;6.776;2023-07-20T15:23:59;26.10;99.90
19868;DHT22;10096;51.112;6.776;2023-07-20T15:26:26;26.20;99.90
19868;DHT22;10096;51.112;6.776;2023-07-20T15:28:53;26.10;99.90
19868;DHT22;10096;51.112;6.776;2023-07-20T15:31:21;26.00;99.90
19868;DHT22;10096;51.112;6.776;2023-07-20T15:33:49;26.10;99.90
19868;DHT22;10096;51.112;6.776;2023-07-20T15:36:17;26.30;99.90
19868;DHT22;10096;51.112;6.776;2023-07-20T15:38:44;26.20;99.90
19868;DHT22;10096;51.112;6.776;2023-07-20T15:41:13;26.20;99.90
19868;DHT22;10096;51.112;6.776;2023-07-20T15:43:40;26.30;99.90